sensor_id;sensor_type;location;lat;lon;timestamp;pressure;altitude;pressure_sealevel;temperature;humidity
80504;BME280;69825;51.190;6.808;2023-06-14T00:00:04;101057.34;;;29.85;33.78
80504;BME280;69825;51.190;6.808;2023-06-14T00:02:31;101064.38;;;29.88;33.81
80504;BME280;69825;51.190;6.808;2023-06-14T00:04:56;101062.16;;;29.90;34.31
80504;BME280;69825;51.190;6.808;2023-06-14T00:07:36;101066.06;;;29.89;34.14
80504;BME280;69825;51.190;6.808;2023-06-14T00:10:04;101069.19;;;29.92;34.10
80504;BME280;69825;51.190;6.808;2023-06-14T00:12:30;101073.88;;;29.92;33.95
80504;BME280;69825;51.190;6.808;2023-06-14T00:14:56;101079.69;;;29.90;34.03
80504;BME280;69825;51.190;6.808;2023-06-14T00:17:22;101079.69;;;29.90;34.22
80504;BME280;69825;51.190;6.808;2023-06-14T00:19:47;101089.13;;;29.89;33.98
80504;BME280;69825;51.190;6.808;2023-06-14T00:22:13;101091.66;;;29.91;34.30
80504;BME280;69825;51.190;6.808;2023-06-14T00:24:38;101077.75;;;29.91;33.95
80504;BME280;69825;51.190;6.808;2023-06-14T00:27:04;101081.06;;;29.88;34.07
80504;BME280;69825;51.190;6.808;2023-06-14T00:29:30;101093.59;;;29.90;33.91
80504;BME280;69825;51.190;6.808;2023-06-14T00:31:55;101095.53;;;29.90;34.02
80504;BME280;69825;51.190;6.808;2023-06-14T00:34:21;101088.81;;;29.85;34.50
80504;BME280;69825;51.190;6.808;2023-06-14T00:36:46;101091.66;;;29.91;34.26
80504;BME280;69825;51.190;6.808;2023-06-14T00:39:11;101089.97;;;29.90;33.77
80504;BME280;69825;51.190;6.808;2023-06-14T00:41:37;101098.06;;;29.91;33.98
80504;BME280;69825;51.190;6.808;2023-06-14T00:44:02;101089.97;;;29.90;33.91
80504;BME280;69825;51.190;6.808;2023-06-14T00:46:28;101088.56;;;29.87;34.07
80504;BME280;69825;51.190;6.808;2023-06-14T00:48:54;101093.59;;;29.90;34.01
80504;BME280;69825;51.190;6.808;2023-06-14T00:51:21;101092.50;;;29.91;34.14
80504;BME280;69825;51.190;6.808;2023-06-14T00:53:46;101081.63;;;29.90;34.39
80504;BME280;69825;51.190;6.808;2023-06-14T00:56:13;101091.34;;;29.87;34.14
80504;BME280;69825;51.190;6.808;2023-06-14T00:58:40;101093.59;;;29.90;34.10
80504;BME280;69825;51.190;6.808;2023-06-14T01:01:06;101088.56;;;29.87;34.46
80504;BME280;69825;51.190;6.808;2023-06-14T01:03:31;101096.38;;;29.90;34.23
80504;BME280;69825;51.190;6.808;2023-06-14T01:06:23;101096.06;;;29.87;34.34
80504;BME280;69825;51.190;6.808;2023-06-14T01:09:16;101099.44;;;29.89;34.42
80504;BME280;69825;51.190;6.808;2023-06-14T01:12:00;101097.00;;;29.92;34.23
80504;BME280;69825;51.190;6.808;2023-06-14T01:14:28;101098.47;;;29.95;34.32
80504;BME280;69825;51.190;6.808;2023-06-14T01:16:56;101103.63;;;29.91;34.61
80504;BME280;69825;51.190;6.808;2023-06-14T01:19:24;101099.78;;;29.92;33.97
80504;BME280;69825;51.190;6.808;2023-06-14T01:21:51;101103.63;;;29.91;34.22
80504;BME280;69825;51.190;6.808;2023-06-14T01:24:16;101106.66;;;29.90;34.68
80504;BME280;69825;51.190;6.808;2023-06-14T01:26:45;101105.81;;;29.89;34.59
80504;BME280;69825;51.190;6.808;2023-06-14T01:29:10;101113.09;;;29.90;34.10
80504;BME280;69825;51.190;6.808;2023-06-14T01:31:36;101105.81;;;29.89;34.27
80504;BME280;69825;51.190;6.808;2023-06-14T01:34:06;101094.13;;;29.87;34.12
80504;BME280;69825;51.190;6.808;2023-06-14T01:36:32;101110.31;;;29.90;34.63
80504;BME280;69825;51.190;6.808;2023-06-14T01:38:58;101109.22;;;29.91;34.30
80504;BME280;69825;51.190;6.808;2023-06-14T01:41:24;101108.34;;;29.91;34.53
80504;BME280;69825;51.190;6.808;2023-06-14T01:43:51;101107.50;;;29.90;34.31
80504;BME280;69825;51.190;6.808;2023-06-14T01:46:17;101112.22;;;29.90;34.17
80504;BME280;69825;51.190;6.808;2023-06-14T01:48:43;101105.81;;;29.89;34.37
80504;BME280;69825;51.190;6.808;2023-06-14T01:51:08;101109.22;;;29.91;34.45
80504;BME280;69825;51.190;6.808;2023-06-14T01:53:34;101107.50;;;29.90;34.53
80504;BME280;69825;51.190;6.808;2023-06-14T01:55:59;101103.31;;;29.88;34.31
80504;BME280;69825;51.190;6.808;2023-06-14T01:58:26;101101.28;;;29.83;34.40
80504;BME280;69825;51.190;6.808;2023-06-14T02:00:51;101107.50;;;29.90;34.58
80504;BME280;69825;51.190;6.808;2023-06-14T02:03:21;101108.34;;;29.91;34.52
80504;BME280;69825;51.190;6.808;2023-06-14T02:05:46;101107.50;;;29.90;34.47
80504;BME280;69825;51.190;6.808;2023-06-14T02:08:12;101108.34;;;29.91;34.41
80504;BME280;69825;51.190;6.808;2023-06-14T02:10:37;101100.25;;;29.89;34.16
80504;BME280;69825;51.190;6.808;2023-06-14T02:13:03;101112.22;;;29.90;33.68
80504;BME280;69825;51.190;6.808;2023-06-14T02:15:28;101091.84;;;29.84;33.49
80504;BME280;69825;51.190;6.808;2023-06-14T02:17:59;101099.69;;;29.87;33.63
80504;BME280;69825;51.190;6.808;2023-06-14T02:20:25;101102.47;;;29.87;33.60
80504;BME280;69825;51.190;6.808;2023-06-14T02:22:50;101099.09;;;29.85;33.74
80504;BME280;69825;51.190;6.808;2023-06-14T02:25:16;101094.06;;;29.82;33.69
80504;BME280;69825;51.190;6.808;2023-06-14T02:27:41;101098.78;;;29.81;33.72
80504;BME280;69825;51.190;6.808;2023-06-14T02:30:07;101103.50;;;29.81;33.50
80504;BME280;69825;51.190;6.808;2023-06-14T02:32:32;101113.78;;;29.80;33.30
80504;BME280;69825;51.190;6.808;2023-06-14T02:35:00;101111.22;;;29.79;33.67
80504;BME280;69825;51.190;6.808;2023-06-14T02:37:26;101096.88;;;29.70;33.58
80504;BME280;69825;51.190;6.808;2023-06-14T02:39:51;101110.06;;;29.75;33.33
80504;BME280;69825;51.190;6.808;2023-06-14T02:42:16;101097.72;;;29.71;33.43
80504;BME280;69825;51.190;6.808;2023-06-14T02:44:42;101115.03;;;29.73;33.52
80504;BME280;69825;51.190;6.808;2023-06-14T02:47:08;101106.69;;;29.73;33.09
80504;BME280;69825;51.190;6.808;2023-06-14T02:49:34;101107.69;;;29.67;33.43
80504;BME280;69825;51.190;6.808;2023-06-14T02:51:59;101115.28;;;29.71;33.45
80504;BME280;69825;51.190;6.808;2023-06-14T02:54:25;101113.56;;;29.70;33.28
80504;BME280;69825;51.190;6.808;2023-06-14T02:56:50;101126.66;;;29.70;33.45
80504;BME280;69825;51.190;6.808;2023-06-14T02:59:15;101126.91;;;29.68;33.26
80504;BME280;69825;51.190;6.808;2023-06-14T03:01:42;101122.34;;;29.62;33.68
80504;BME280;69825;51.190;6.808;2023-06-14T03:04:08;101123.34;;;29.56;33.28
80504;BME280;69825;51.190;6.808;2023-06-14T03:06:34;101142.41;;;29.64;33.09
80504;BME280;69825;51.190;6.808;2023-06-14T03:09:00;101138.34;;;29.55;33.40
80504;BME280;69825;51.190;6.808;2023-06-14T03:11:26;101132.44;;;29.52;33.46
80504;BME280;69825;51.190;6.808;2023-06-14T03:13:52;101147.63;;;29.61;33.01
80504;BME280;69825;51.190;6.808;2023-06-14T03:16:18;101148.63;;;29.55;33.21
80504;BME280;69825;51.190;6.808;2023-06-14T03:18:48;101126.19;;;29.44;33.43
80504;BME280;69825;51.190;6.808;2023-06-14T03:21:13;101157.06;;;29.60;33.24
80504;BME280;69825;51.190;6.808;2023-06-14T03:23:41;101161.78;;;29.59;33.36
80504;BME280;69825;51.190;6.808;2023-06-14T03:26:06;101140.69;;;29.47;33.28
80504;BME280;69825;51.190;6.808;2023-06-14T03:28:31;101151.31;;;29.50;33.16
80504;BME280;69825;51.190;6.808;2023-06-14T03:30:57;101164.81;;;29.58;33.12
80504;BME280;69825;51.190;6.808;2023-06-14T03:33:22;101163.13;;;29.57;33.52
80504;BME280;69825;51.190;6.808;2023-06-14T03:35:47;101167.84;;;29.56;33.03
80504;BME280;69825;51.190;6.808;2023-06-14T03:38:13;101146.25;;;29.47;33.56
80504;BME280;69825;51.190;6.808;2023-06-14T03:40:38;101165.31;;;29.55;33.35
80504;BME280;69825;51.190;6.808;2023-06-14T03:43:03;101168.34;;;29.53;33.40
80504;BME280;69825;51.190;6.808;2023-06-14T03:45:29;101172.81;;;29.54;33.56
80504;BME280;69825;51.190;6.808;2023-06-14T03:47:54;101173.06;;;29.53;33.25
80504;BME280;69825;51.190;6.808;2023-06-14T03:50:19;101165.22;;;29.50;33.33
80504;BME280;69825;51.190;6.808;2023-06-14T03:52:45;101180.81;;;29.51;33.64
80504;BME280;69825;51.190;6.808;2023-06-14T03:55:11;101178.03;;;29.51;33.30
80504;BME280;69825;51.190;6.808;2023-06-14T03:57:38;101176.34;;;29.50;33.25
80504;BME280;69825;51.190;6.808;2023-06-14T04:00:04;101167.91;;;29.44;33.35
80504;BME280;69825;51.190;6.808;2023-06-14T04:02:31;101182.97;;;29.49;33.56
80504;BME280;69825;51.190;6.808;2023-06-14T04:04:56;101185.75;;;29.49;33.42
80504;BME280;69825;51.190;6.808;2023-06-14T04:07:21;101177.31;;;29.43;33.18
80504;BME280;69825;51.190;6.808;2023-06-14T04:09:48;101184.25;;;29.41;33.41
80504;BME280;69825;51.190;6.808;2023-06-14T04:12:14;101190.75;;;29.47;33.65
80504;BME280;69825;51.190;6.808;2023-06-14T04:14:40;101195.47;;;29.46;33.53
80504;BME280;69825;51.190;6.808;2023-06-14T04:17:05;101195.47;;;29.46;33.51
80504;BME280;69825;51.190;6.808;2023-06-14T04:19:31;101198.47;;;29.44;33.74
80504;BME280;69825;51.190;6.808;2023-06-14T04:21:57;101196.78;;;29.43;33.65
80504;BME280;69825;51.190;6.808;2023-06-14T04:24:24;101197.63;;;29.44;33.25
80504;BME280;69825;51.190;6.808;2023-06-14T04:26:57;101209.59;;;29.44;33.69
80504;BME280;69825;51.190;6.808;2023-06-14T04:29:23;101203.72;;;29.41;33.71
80504;BME280;69825;51.190;6.808;2023-06-14T04:31:49;101219.03;;;29.43;33.55
80504;BME280;69825;51.190;6.808;2023-06-14T04:34:14;101198.25;;;29.34;33.37
80504;BME280;69825;51.190;6.808;2023-06-14T04:36:43;101212.88;;;29.41;33.44
80504;BME280;69825;51.190;6.808;2023-06-14T04:39:17;101214.00;;;29.40;33.47
80504;BME280;69825;51.190;6.808;2023-06-14T04:41:43;101184.38;;;29.23;33.18
80504;BME280;69825;51.190;6.808;2023-06-14T04:44:09;101221.72;;;29.38;33.04
80504;BME280;69825;51.190;6.808;2023-06-14T04:46:35;101213.25;;;29.33;33.25
80504;BME280;69825;51.190;6.808;2023-06-14T04:49:09;101220.50;;;29.34;32.56
80504;BME280;69825;51.190;6.808;2023-06-14T04:51:34;101224.97;;;29.35;32.56
80504;BME280;69825;51.190;6.808;2023-06-14T04:54:00;101220.97;;;29.31;32.39
80504;BME280;69825;51.190;6.808;2023-06-14T04:56:26;101223.16;;;29.29;32.14
80504;BME280;69825;51.190;6.808;2023-06-14T04:58:52;101239.84;;;29.29;31.43
80504;BME280;69825;51.190;6.808;2023-06-14T05:01:18;101237.06;;;29.29;31.62
80504;BME280;69825;51.190;6.808;2023-06-14T05:03:44;101230.22;;;29.20;31.41
80504;BME280;69825;51.190;6.808;2023-06-14T05:06:10;101244.22;;;29.25;31.36
80504;BME280;69825;51.190;6.808;2023-06-14T05:08:37;101243.84;;;29.22;31.01
80504;BME280;69825;51.190;6.808;2023-06-14T05:11:02;101240.97;;;29.17;30.99
80504;BME280;69825;51.190;6.808;2023-06-14T05:13:28;101236.38;;;29.11;30.87
80504;BME280;69825;51.190;6.808;2023-06-14T05:15:53;101237.69;;;29.08;30.26
80504;BME280;69825;51.190;6.808;2023-06-14T05:18:18;101247.38;;;29.17;30.62
80504;BME280;69825;51.190;6.808;2023-06-14T05:20:45;101248.69;;;29.15;30.57
80504;BME280;69825;51.190;6.808;2023-06-14T05:23:11;101249.19;;;29.12;30.42
80504;BME280;69825;51.190;6.808;2023-06-14T05:25:42;101243.63;;;29.12;30.70
80504;BME280;69825;51.190;6.808;2023-06-14T05:28:08;101235.66;;;29.03;30.49
80504;BME280;69825;51.190;6.808;2023-06-14T05:30:33;101243.25;;;29.08;30.67
80504;BME280;69825;51.190;6.808;2023-06-14T05:32:59;101243.25;;;29.08;30.54
80504;BME280;69825;51.190;6.808;2023-06-14T05:35:24;101253.81;;;29.06;30.24
80504;BME280;69825;51.190;6.808;2023-06-14T05:37:52;101245.09;;;29.02;30.61
80504;BME280;69825;51.190;6.808;2023-06-14T05:40:17;101249.31;;;29.05;30.45
80504;BME280;69825;51.190;6.808;2023-06-14T05:42:42;101250.41;;;29.04;30.66
80504;BME280;69825;51.190;6.808;2023-06-14T05:45:08;101249.81;;;29.02;30.49
80504;BME280;69825;51.190;6.808;2023-06-14T05:47:33;101250.31;;;28.99;29.97
80504;BME280;69825;51.190;6.808;2023-06-14T05:49:58;101249.22;;;29.00;30.34
80504;BME280;69825;51.190;6.808;2023-06-14T05:52:24;101260.56;;;28.98;30.67
80504;BME280;69825;51.190;6.808;2023-06-14T05:54:50;101245.09;;;28.91;30.30
80504;BME280;69825;51.190;6.808;2023-06-14T05:57:15;101264.44;;;28.97;30.44
80504;BME280;69825;51.190;6.808;2023-06-14T05:59:41;101266.38;;;28.97;30.41
80504;BME280;69825;51.190;6.808;2023-06-14T06:02:06;101262.97;;;28.95;30.70
80504;BME280;69825;51.190;6.808;2023-06-14T06:04:32;101270.72;;;28.93;30.09
80504;BME280;69825;51.190;6.808;2023-06-14T06:06:57;101264.91;;;28.94;30.35
80504;BME280;69825;51.190;6.808;2023-06-14T06:09:22;101267.94;;;28.93;30.30
80504;BME280;69825;51.190;6.808;2023-06-14T06:11:48;101282.94;;;28.92;30.44
80504;BME280;69825;51.190;6.808;2023-06-14T06:14:13;101274.59;;;28.92;30.36
80504;BME280;69825;51.190;6.808;2023-06-14T06:16:38;101277.59;;;28.90;30.25
80504;BME280;69825;51.190;6.808;2023-06-14T06:19:04;101272.41;;;28.82;30.21
80504;BME280;69825;51.190;6.808;2023-06-14T06:21:29;101281.47;;;28.89;30.17
80504;BME280;69825;51.190;6.808;2023-06-14T06:23:54;101279.53;;;28.90;30.21
80504;BME280;69825;51.190;6.808;2023-06-14T06:26:21;101270.25;;;28.84;30.37
80504;BME280;69825;51.190;6.808;2023-06-14T06:28:47;101280.84;;;28.87;30.32
80504;BME280;69825;51.190;6.808;2023-06-14T06:31:12;101250.78;;;28.73;30.22
80504;BME280;69825;51.190;6.808;2023-06-14T06:33:38;101274.09;;;28.83;30.20
80504;BME280;69825;51.190;6.808;2023-06-14T06:36:05;101282.19;;;28.85;30.35
80504;BME280;69825;51.190;6.808;2023-06-14T06:38:30;101276.25;;;28.81;30.55
80504;BME280;69825;51.190;6.808;2023-06-14T06:40:56;101284.13;;;28.84;30.43
80504;BME280;69825;51.190;6.808;2023-06-14T06:43:21;101288.00;;;28.83;30.22
80504;BME280;69825;51.190;6.808;2023-06-14T06:45:47;101291.63;;;28.84;30.46
80504;BME280;69825;51.190;6.808;2023-06-14T06:48:12;101286.06;;;28.84;30.40
80504;BME280;69825;51.190;6.808;2023-06-14T06:50:38;101289.91;;;28.83;30.74
80504;BME280;69825;51.190;6.808;2023-06-14T06:53:03;101292.94;;;28.81;30.26
80504;BME280;69825;51.190;6.808;2023-06-14T06:55:29;101298.25;;;28.83;30.10
80504;BME280;69825;51.190;6.808;2023-06-14T06:57:54;101302.97;;;28.82;30.34
80504;BME280;69825;51.190;6.808;2023-06-14T07:00:20;101295.47;;;28.83;30.22
80504;BME280;69825;51.190;6.808;2023-06-14T07:02:46;101297.63;;;28.81;30.01
80504;BME280;69825;51.190;6.808;2023-06-14T07:05:12;101299.34;;;28.82;30.27
80504;BME280;69825;51.190;6.808;2023-06-14T07:07:37;101301.28;;;28.81;30.46
80504;BME280;69825;51.190;6.808;2023-06-14T07:10:03;101296.44;;;28.77;30.41
80504;BME280;69825;51.190;6.808;2023-06-14T07:12:30;101310.44;;;28.82;30.19
80504;BME280;69825;51.190;6.808;2023-06-14T07:14:58;101305.97;;;28.81;30.22
80504;BME280;69825;51.190;6.808;2023-06-14T07:17:24;101314.06;;;28.82;30.85
80504;BME280;69825;51.190;6.808;2023-06-14T07:19:49;101307.06;;;28.80;30.35
80504;BME280;69825;51.190;6.808;2023-06-14T07:22:16;101293.25;;;28.73;30.25
80504;BME280;69825;51.190;6.808;2023-06-14T07:24:41;101310.94;;;28.79;30.52
80504;BME280;69825;51.190;6.808;2023-06-14T07:27:07;101316.00;;;28.82;30.54
80504;BME280;69825;51.190;6.808;2023-06-14T07:29:33;101307.66;;;28.82;30.53
80504;BME280;69825;51.190;6.808;2023-06-14T07:31:58;101309.59;;;28.81;30.62
80504;BME280;69825;51.190;6.808;2023-06-14T07:34:23;101318.78;;;28.82;30.48
80504;BME280;69825;51.190;6.808;2023-06-14T07:36:49;101305.84;;;28.76;30.51
80504;BME280;69825;51.190;6.808;2023-06-14T07:39:14;101304.91;;;28.82;31.18
80504;BME280;69825;51.190;6.808;2023-06-14T07:41:40;101305.00;;;28.75;30.90
80504;BME280;69825;51.190;6.808;2023-06-14T07:44:05;101299.47;;;28.75;30.88
80504;BME280;69825;51.190;6.808;2023-06-14T07:46:31;101307.66;;;28.82;30.78
80504;BME280;69825;51.190;6.808;2023-06-14T07:48:56;101304.91;;;28.82;30.75
80504;BME280;69825;51.190;6.808;2023-06-14T07:51:22;101299.84;;;28.79;30.34
80504;BME280;69825;51.190;6.808;2023-06-14T07:53:48;101313.22;;;28.82;31.01
80504;BME280;69825;51.190;6.808;2023-06-14T07:56:13;101310.09;;;28.78;30.91
80504;BME280;69825;51.190;6.808;2023-06-14T07:58:39;101310.34;;;28.77;31.01
80504;BME280;69825;51.190;6.808;2023-06-14T08:01:04;101306.25;;;28.79;31.04
80504;BME280;69825;51.190;6.808;2023-06-14T08:03:32;101317.72;;;28.83;31.10
80504;BME280;69825;51.190;6.808;2023-06-14T08:05:57;101308.16;;;28.79;31.00
80504;BME280;69825;51.190;6.808;2023-06-14T08:08:23;101317.94;;;28.81;30.98
80504;BME280;69825;51.190;6.808;2023-06-14T08:10:48;101322.66;;;28.81;31.16
80504;BME280;69825;51.190;6.808;2023-06-14T08:13:13;101314.94;;;28.83;31.27
80504;BME280;69825;51.190;6.808;2023-06-14T08:15:39;101320.47;;;28.83;31.07
80504;BME280;69825;51.190;6.808;2023-06-14T08:18:04;101313.84;;;28.84;30.92
80504;BME280;69825;51.190;6.808;2023-06-14T08:20:30;101324.34;;;28.82;31.19
80504;BME280;69825;51.190;6.808;2023-06-14T08:22:56;101307.41;;;28.72;31.32
80504;BME280;69825;51.190;6.808;2023-06-14T08:25:22;101320.47;;;28.83;31.34
80504;BME280;69825;51.190;6.808;2023-06-14T08:27:48;101317.72;;;28.83;31.25
80504;BME280;69825;51.190;6.808;2023-06-14T08:30:13;101316.00;;;28.82;31.38
80504;BME280;69825;51.190;6.808;2023-06-14T08:32:39;101314.06;;;28.82;31.38
80504;BME280;69825;51.190;6.808;2023-06-14T08:35:04;101324.09;;;28.83;31.42
80504;BME280;69825;51.190;6.808;2023-06-14T08:37:31;101317.72;;;28.83;31.66
80504;BME280;69825;51.190;6.808;2023-06-14T08:39:56;101313.00;;;28.83;31.52
80504;BME280;69825;51.190;6.808;2023-06-14T08:42:22;101323.25;;;28.83;31.49
80504;BME280;69825;51.190;6.808;2023-06-14T08:44:49;101326.66;;;28.85;31.56
80504;BME280;69825;51.190;6.808;2023-06-14T08:47:15;101324.97;;;28.84;31.40
80504;BME280;69825;51.190;6.808;2023-06-14T08:49:42;101301.25;;;28.69;31.55
80504;BME280;69825;51.190;6.808;2023-06-14T08:52:10;101310.94;;;28.79;31.52
80504;BME280;69825;51.190;6.808;2023-06-14T08:54:38;101314.06;;;28.82;31.46
80504;BME280;69825;51.190;6.808;2023-06-14T08:57:11;101315.53;;;28.85;31.49
80504;BME280;69825;51.190;6.808;2023-06-14T08:59:44;101315.53;;;28.85;31.54
80504;BME280;69825;51.190;6.808;2023-06-14T09:02:10;101312.16;;;28.83;31.66
80504;BME280;69825;51.190;6.808;2023-06-14T09:04:38;101325.56;;;28.86;31.55
80504;BME280;69825;51.190;6.808;2023-06-14T09:07:05;101313.84;;;28.84;31.63
80504;BME280;69825;51.190;6.808;2023-06-14T09:09:31;101315.53;;;28.85;31.68
80504;BME280;69825;51.190;6.808;2023-06-14T09:11:57;101326.28;;;28.81;31.70
80504;BME280;69825;51.190;6.808;2023-06-14T09:14:23;101322.78;;;28.86;31.82
80504;BME280;69825;51.190;6.808;2023-06-14T09:16:53;101322.78;;;28.86;31.78
80504;BME280;69825;51.190;6.808;2023-06-14T09:19:25;101318.16;;;28.80;31.92
80504;BME280;69825;51.190;6.808;2023-06-14T09:21:52;101332.78;;;28.87;31.92
80504;BME280;69825;51.190;6.808;2023-06-14T09:24:18;101337.75;;;28.85;31.90
80504;BME280;69825;51.190;6.808;2023-06-14T09:26:47;101325.56;;;28.86;31.94
80504;BME280;69825;51.190;6.808;2023-06-14T09:29:12;101327.50;;;28.85;31.90
80504;BME280;69825;51.190;6.808;2023-06-14T09:31:37;101322.78;;;28.86;31.92
80504;BME280;69825;51.190;6.808;2023-06-14T09:34:03;101334.38;;;28.83;31.76
80504;BME280;69825;51.190;6.808;2023-06-14T09:36:31;101337.25;;;28.88;31.89
80504;BME280;69825;51.190;6.808;2023-06-14T09:39:02;101341.13;;;28.87;32.03
80504;BME280;69825;51.190;6.808;2023-06-14T09:41:35;101345.59;;;28.88;31.97
80504;BME280;69825;51.190;6.808;2023-06-14T09:44:04;101350.94;;;28.89;32.28
80504;BME280;69825;51.190;6.808;2023-06-14T09:46:30;101353.94;;;28.88;32.06
80504;BME280;69825;51.190;6.808;2023-06-14T09:48:59;101348.38;;;28.88;32.06
80504;BME280;69825;51.190;6.808;2023-06-14T09:51:26;101360.34;;;28.88;32.25
80504;BME280;69825;51.190;6.808;2023-06-14T09:53:52;101361.19;;;28.89;32.00
80504;BME280;69825;51.190;6.808;2023-06-14T09:56:25;101363.13;;;28.88;32.00
80504;BME280;69825;51.190;6.808;2023-06-14T09:58:55;101364.22;;;28.87;31.85
80504;BME280;69825;51.190;6.808;2023-06-14T10:01:21;101339.94;;;28.83;31.56
80504;BME280;69825;51.190;6.808;2023-06-14T10:03:50;101336.41;;;28.76;31.60
80504;BME280;69825;51.190;6.808;2023-06-14T10:06:16;101363.34;;;28.87;31.17
80504;BME280;69825;51.190;6.808;2023-06-14T10:08:42;101354.91;;;28.82;31.37
80504;BME280;69825;51.190;6.808;2023-06-14T10:11:07;101348.50;;;28.81;31.12
80504;BME280;69825;51.190;6.808;2023-06-14T10:13:33;101354.44;;;28.85;30.86
80504;BME280;69825;51.190;6.808;2023-06-14T10:16:07;101357.44;;;28.83;30.93
80504;BME280;69825;51.190;6.808;2023-06-14T10:18:51;101358.28;;;28.84;30.67
80504;BME280;69825;51.190;6.808;2023-06-14T10:21:41;101354.06;;;28.81;30.85
80504;BME280;69825;51.190;6.808;2023-06-14T10:24:10;101337.75;;;28.85;30.47
80504;BME280;69825;51.190;6.808;2023-06-14T10:26:50;101331.31;;;28.73;30.55
80504;BME280;69825;51.190;6.808;2023-06-14T10:29:16;101348.03;;;28.84;30.48
80504;BME280;69825;51.190;6.808;2023-06-14T10:31:49;101340.16;;;28.81;30.41
80504;BME280;69825;51.190;6.808;2023-06-14T10:34:26;101343.16;;;28.80;30.33
80504;BME280;69825;51.190;6.808;2023-06-14T10:37:06;101347.66;;;28.81;30.28
80504;BME280;69825;51.190;6.808;2023-06-14T10:39:37;101342.59;;;28.78;30.20
80504;BME280;69825;51.190;6.808;2023-06-14T10:42:03;101330.97;;;28.81;30.10
80504;BME280;69825;51.190;6.808;2023-06-14T10:46:58;101340.41;;;28.80;30.13
80504;BME280;69825;51.190;6.808;2023-06-14T10:49:45;101325.63;;;28.67;30.04
80504;BME280;69825;51.190;6.808;2023-06-14T10:52:12;101334.59;;;28.81;29.89
80504;BME280;69825;51.190;6.808;2023-06-14T10:55:16;101334.50;;;28.76;30.13
80504;BME280;69825;51.190;6.808;2023-06-14T10:57:55;101339.09;;;28.82;29.83
80504;BME280;69825;51.190;6.808;2023-06-14T11:00:25;101321.78;;;28.80;29.99
80504;BME280;69825;51.190;6.808;2023-06-14T11:03:31;101333.63;;;28.76;30.05
80504;BME280;69825;51.190;6.808;2023-06-14T11:06:12;101331.47;;;28.78;29.88
80504;BME280;69825;51.190;6.808;2023-06-14T11:09:11;101331.47;;;28.78;29.90
80504;BME280;69825;51.190;6.808;2023-06-14T11:11:41;101313.13;;;28.77;29.80
80504;BME280;69825;51.190;6.808;2023-06-14T11:14:07;101319.75;;;28.76;29.79
80504;BME280;69825;51.190;6.808;2023-06-14T11:16:33;101317.16;;;28.74;29.38
80504;BME280;69825;51.190;6.808;2023-06-14T11:19:00;101310.19;;;28.72;29.89
80504;BME280;69825;51.190;6.808;2023-06-14T11:21:26;101312.34;;;28.69;29.86
80504;BME280;69825;51.190;6.808;2023-06-14T11:23:56;101322.06;;;28.79;29.42
80504;BME280;69825;51.190;6.808;2023-06-14T11:26:40;101319.09;;;28.74;29.71
80504;BME280;69825;51.190;6.808;2023-06-14T11:29:06;101320.13;;;28.79;29.57
80504;BME280;69825;51.190;6.808;2023-06-14T11:31:31;101322.06;;;28.79;29.54
80504;BME280;69825;51.190;6.808;2023-06-14T11:33:58;101314.81;;;28.78;29.79
80504;BME280;69825;51.190;6.808;2023-06-14T11:36:26;101299.53;;;28.68;29.65
80504;BME280;69825;51.190;6.808;2023-06-14T11:39:06;101314.03;;;28.71;29.54
80504;BME280;69825;51.190;6.808;2023-06-14T11:41:43;101310.94;;;28.79;29.72
80504;BME280;69825;51.190;6.808;2023-06-14T11:44:10;101310.34;;;28.77;29.77
80504;BME280;69825;51.190;6.808;2023-06-14T11:46:35;101309.25;;;28.78;29.70
80504;BME280;69825;51.190;6.808;2023-06-14T11:49:02;101305.41;;;28.79;29.85
80504;BME280;69825;51.190;6.808;2023-06-14T11:51:32;101302.63;;;28.79;29.93
80504;BME280;69825;51.190;6.808;2023-06-14T11:53:58;101266.31;;;28.62;30.05
80504;BME280;69825;51.190;6.808;2023-06-14T11:56:23;101297.53;;;28.76;29.94
80504;BME280;69825;51.190;6.808;2023-06-14T11:58:50;101299.84;;;28.79;30.07
80504;BME280;69825;51.190;6.808;2023-06-14T12:01:16;101276.13;;;28.64;30.12
80504;BME280;69825;51.190;6.808;2023-06-14T12:03:49;101301.50;;;28.80;30.12
80504;BME280;69825;51.190;6.808;2023-06-14T12:06:15;101293.78;;;28.82;30.24
80504;BME280;69825;51.190;6.808;2023-06-14T12:08:43;101293.78;;;28.82;30.03
80504;BME280;69825;51.190;6.808;2023-06-14T12:11:12;101301.03;;;28.83;30.28
80504;BME280;69825;51.190;6.808;2023-06-14T12:13:39;101289.91;;;28.83;30.40
80504;BME280;69825;51.190;6.808;2023-06-14T12:16:11;101287.38;;;28.81;30.34
80504;BME280;69825;51.190;6.808;2023-06-14T12:18:38;101289.91;;;28.83;30.41
80504;BME280;69825;51.190;6.808;2023-06-14T12:21:07;101307.22;;;28.85;30.45
80504;BME280;69825;51.190;6.808;2023-06-14T12:23:43;101298.88;;;28.85;30.38
80504;BME280;69825;51.190;6.808;2023-06-14T12:26:09;101291.13;;;28.87;30.15
80504;BME280;69825;51.190;6.808;2023-06-14T12:28:35;101296.66;;;28.87;30.38
80504;BME280;69825;51.190;6.808;2023-06-14T12:31:00;101298.38;;;28.88;30.67
80504;BME280;69825;51.190;6.808;2023-06-14T12:33:26;101277.63;;;28.79;30.44
80504;BME280;69825;51.190;6.808;2023-06-14T12:35:55;101298.97;;;28.90;31.01
80504;BME280;69825;51.190;6.808;2023-06-14T12:38:21;101297.91;;;28.91;30.67
80504;BME280;69825;51.190;6.808;2023-06-14T12:40:46;101294.03;;;28.92;30.76
80504;BME280;69825;51.190;6.808;2023-06-14T12:43:12;101286.56;;;28.92;30.61
80504;BME280;69825;51.190;6.808;2023-06-14T12:45:37;101287.41;;;28.93;30.71
80504;BME280;69825;51.190;6.808;2023-06-14T12:48:02;101296.31;;;28.95;30.63
80504;BME280;69825;51.190;6.808;2023-06-14T12:50:28;101294.03;;;28.92;30.66
80504;BME280;69825;51.190;6.808;2023-06-14T12:52:53;101296.09;;;28.96;30.92